sensor_id;sensor_type;location;lat;lon;timestamp;P1;durP1;ratioP1;P2;durP2;ratioP2
65658;SDS011;60181;53.258;6.932;2022-07-23T00:00:35;11.50;;;6.40;;
65658;SDS011;60181;53.258;6.932;2022-07-23T00:05:03;11.50;;;6.40;;
65658;SDS011;60181;53.258;6.932;2022-07-23T00:09:31;10.80;;;6.00;;
65658;SDS011;60181;53.258;6.932;2022-07-23T00:13:59;10.80;;;6.00;;
65658;SDS011;60181;53.258;6.932;2022-07-23T00:18:27;10.80;;;6.00;;
65658;SDS011;60181;53.258;6.932;2022-07-23T00:22:55;10.40;;;6.20;;
65658;SDS011;60181;53.258;6.932;2022-07-23T00:27:23;10.40;;;6.20;;
65658;SDS011;60181;53.258;6.932;2022-07-23T00:31:51;9.60;;;6.20;;
65658;SDS011;60181;53.258;6.932;2022-07-23T00:36:19;9.60;;;6.20;;
65658;SDS011;60181;53.258;6.932;2022-07-23T00:40:47;9.10;;;5.70;;
65658;SDS011;60181;53.258;6.932;2022-07-23T00:45:15;9.10;;;5.70;;
65658;SDS011;60181;53.258;6.932;2022-07-23T00:49:43;8.60;;;5.90;;
65658;SDS011;60181;53.258;6.932;2022-07-23T00:54:11;8.60;;;5.90;;
65658;SDS011;60181;53.258;6.932;2022-07-23T00:58:39;8.60;;;5.90;;
65658;SDS011;60181;53.258;6.932;2022-07-23T01:03:07;10.20;;;5.90;;
65658;SDS011;60181;53.258;6.932;2022-07-23T01:07:35;10.20;;;5.90;;
65658;SDS011;60181;53.258;6.932;2022-07-23T01:12:03;8.90;;;5.60;;
65658;SDS011;60181;53.258;6.932;2022-07-23T01:16:31;8.90;;;5.60;;
65658;SDS011;60181;53.258;6.932;2022-07-23T01:20:59;8.80;;;5.60;;
65658;SDS011;60181;53.258;6.932;2022-07-23T01:25:27;8.80;;;5.60;;
65658;SDS011;60181;53.258;6.932;2022-07-23T01:29:55;8.10;;;5.40;;
65658;SDS011;60181;53.258;6.932;2022-07-23T01:34:23;8.10;;;5.40;;
65658;SDS011;60181;53.258;6.932;2022-07-23T01:38:51;8.30;;;5.40;;
65658;SDS011;60181;53.258;6.932;2022-07-23T01:43:19;8.30;;;5.40;;
65658;SDS011;60181;53.258;6.932;2022-07-23T01:47:47;8.30;;;5.40;;
65658;SDS011;60181;53.258;6.932;2022-07-23T01:52:15;7.90;;;5.00;;
65658;SDS011;60181;53.258;6.932;2022-07-23T01:56:43;7.90;;;5.00;;
65658;SDS011;60181;53.258;6.932;2022-07-23T02:01:11;8.00;;;5.20;;
65658;SDS011;60181;53.258;6.932;2022-07-23T02:05:39;8.00;;;5.20;;
65658;SDS011;60181;53.258;6.932;2022-07-23T02:10:07;8.40;;;5.30;;
65658;SDS011;60181;53.258;6.932;2022-07-23T02:14:35;8.40;;;5.30;;
65658;SDS011;60181;53.258;6.932;2022-07-23T02:19:03;7.90;;;4.90;;
65658;SDS011;60181;53.258;6.932;2022-07-23T02:23:31;7.90;;;4.90;;
65658;SDS011;60181;53.258;6.932;2022-07-23T02:27:59;7.90;;;4.90;;
65658;SDS011;60181;53.258;6.932;2022-07-23T02:32:27;7.00;;;4.60;;
65658;SDS011;60181;53.258;6.932;2022-07-23T02:36:55;7.00;;;4.60;;
65658;SDS011;60181;53.258;6.932;2022-07-23T02:41:23;7.70;;;4.90;;
65658;SDS011;60181;53.258;6.932;2022-07-23T02:45:51;7.70;;;4.90;;
65658;SDS011;60181;53.258;6.932;2022-07-23T02:50:19;6.40;;;4.50;;
65658;SDS011;60181;53.258;6.932;2022-07-23T02:54:47;6.40;;;4.50;;
65658;SDS011;60181;53.258;6.932;2022-07-23T02:59:15;6.90;;;4.70;;
65658;SDS011;60181;53.258;6.932;2022-07-23T03:03:43;6.90;;;4.70;;
65658;SDS011;60181;53.258;6.932;2022-07-23T03:08:11;6.90;;;4.70;;
65658;SDS011;60181;53.258;6.932;2022-07-23T03:12:38;7.10;;;4.20;;
65658;SDS011;60181;53.258;6.932;2022-07-23T03:17:07;7.10;;;4.20;;
65658;SDS011;60181;53.258;6.932;2022-07-23T03:21:34;6.50;;;4.30;;
65658;SDS011;60181;53.258;6.932;2022-07-23T03:26:02;6.50;;;4.30;;
65658;SDS011;60181;53.258;6.932;2022-07-23T03:30:30;6.80;;;4.50;;
65658;SDS011;60181;53.258;6.932;2022-07-23T03:34:58;6.80;;;4.50;;
65658;SDS011;60181;53.258;6.932;2022-07-23T03:39:27;5.30;;;3.80;;
65658;SDS011;60181;53.258;6.932;2022-07-23T03:43:54;5.30;;;3.80;;
65658;SDS011;60181;53.258;6.932;2022-07-23T03:48:22;5.30;;;3.80;;
65658;SDS011;60181;53.258;6.932;2022-07-23T03:52:51;6.40;;;4.20;;
65658;SDS011;60181;53.258;6.932;2022-07-23T03:57:18;6.40;;;4.20;;
65658;SDS011;60181;53.258;6.932;2022-07-23T04:01:46;7.10;;;3.90;;
65658;SDS011;60181;53.258;6.932;2022-07-23T04:06:14;7.10;;;3.90;;
65658;SDS011;60181;53.258;6.932;2022-07-23T04:10:42;6.30;;;3.80;;
65658;SDS011;60181;53.258;6.932;2022-07-23T04:15:10;6.30;;;3.80;;
65658;SDS011;60181;53.258;6.932;2022-07-23T04:19:38;7.30;;;4.00;;
65658;SDS011;60181;53.258;6.932;2022-07-23T04:24:07;7.30;;;4.00;;
65658;SDS011;60181;53.258;6.932;2022-07-23T04:28:34;7.30;;;4.00;;
65658;SDS011;60181;53.258;6.932;2022-07-23T04:33:02;7.30;;;3.50;;
65658;SDS011;60181;53.258;6.932;2022-07-23T04:37:30;7.30;;;3.50;;
65658;SDS011;60181;53.258;6.932;2022-07-23T04:41:58;5.50;;;3.50;;
65658;SDS011;60181;53.258;6.932;2022-07-23T04:46:26;5.50;;;3.50;;
65658;SDS011;60181;53.258;6.932;2022-07-23T04:50:54;5.60;;;3.40;;
65658;SDS011;60181;53.258;6.932;2022-07-23T04:55:23;5.60;;;3.40;;
65658;SDS011;60181;53.258;6.932;2022-07-23T04:59:50;5.80;;;3.50;;
65658;SDS011;60181;53.258;6.932;2022-07-23T05:04:18;5.80;;;3.50;;
65658;SDS011;60181;53.258;6.932;2022-07-23T05:08:46;6.30;;;3.30;;
65658;SDS011;60181;53.258;6.932;2022-07-23T05:13:15;6.30;;;3.30;;
65658;SDS011;60181;53.258;6.932;2022-07-23T05:17:42;6.30;;;3.30;;
65658;SDS011;60181;53.258;6.932;2022-07-23T05:22:10;6.30;;;3.10;;
65658;SDS011;60181;53.258;6.932;2022-07-23T05:26:38;6.30;;;3.10;;
65658;SDS011;60181;53.258;6.932;2022-07-23T05:31:06;5.80;;;2.90;;
65658;SDS011;60181;53.258;6.932;2022-07-23T05:35:34;5.80;;;2.90;;
65658;SDS011;60181;53.258;6.932;2022-07-23T05:40:03;4.00;;;3.00;;
65658;SDS011;60181;53.258;6.932;2022-07-23T05:44:30;4.00;;;3.00;;
65658;SDS011;60181;53.258;6.932;2022-07-23T05:48:58;4.10;;;2.90;;
65658;SDS011;60181;53.258;6.932;2022-07-23T05:53:26;4.10;;;2.90;;
65658;SDS011;60181;53.258;6.932;2022-07-23T05:57:55;4.10;;;2.90;;
65658;SDS011;60181;53.258;6.932;2022-07-23T06:02:22;5.60;;;3.10;;
65658;SDS011;60181;53.258;6.932;2022-07-23T06:06:50;5.60;;;3.10;;
65658;SDS011;60181;53.258;6.932;2022-07-23T06:11:18;4.60;;;3.10;;
65658;SDS011;60181;53.258;6.932;2022-07-23T06:15:46;4.60;;;3.10;;
65658;SDS011;60181;53.258;6.932;2022-07-23T06:20:14;6.00;;;3.40;;
65658;SDS011;60181;53.258;6.932;2022-07-23T06:24:42;6.00;;;3.40;;
65658;SDS011;60181;53.258;6.932;2022-07-23T06:29:10;5.60;;;3.10;;
65658;SDS011;60181;53.258;6.932;2022-07-23T06:33:38;5.60;;;3.10;;
65658;SDS011;60181;53.258;6.932;2022-07-23T06:38:06;5.60;;;3.10;;
65658;SDS011;60181;53.258;6.932;2022-07-23T06:42:34;5.60;;;3.10;;
65658;SDS011;60181;53.258;6.932;2022-07-23T06:47:02;5.60;;;3.10;;
65658;SDS011;60181;53.258;6.932;2022-07-23T06:51:30;6.30;;;3.40;;
65658;SDS011;60181;53.258;6.932;2022-07-23T06:55:58;6.30;;;3.40;;
65658;SDS011;60181;53.258;6.932;2022-07-23T07:00:26;6.40;;;4.00;;
65658;SDS011;60181;53.258;6.932;2022-07-23T07:04:54;6.40;;;4.00;;
65658;SDS011;60181;53.258;6.932;2022-07-23T07:09:22;5.90;;;4.00;;
65658;SDS011;60181;53.258;6.932;2022-07-23T07:13:50;5.90;;;4.00;;
65658;SDS011;60181;53.258;6.932;2022-07-23T07:18:18;5.90;;;4.00;;
65658;SDS011;60181;53.258;6.932;2022-07-23T07:22:46;5.70;;;3.50;;
65658;SDS011;60181;53.258;6.932;2022-07-23T07:27:14;5.70;;;3.50;;
65658;SDS011;60181;53.258;6.932;2022-07-23T07:31:42;5.90;;;3.90;;
65658;SDS011;60181;53.258;6.932;2022-07-23T07:36:10;5.90;;;3.90;;
65658;SDS011;60181;53.258;6.932;2022-07-23T07:40:38;6.70;;;4.40;;
65658;SDS011;60181;53.258;6.932;2022-07-23T07:45:07;6.70;;;4.40;;
65658;SDS011;60181;53.258;6.932;2022-07-23T07:49:34;6.40;;;4.20;;
65658;SDS011;60181;53.258;6.932;2022-07-23T07:54:02;6.40;;;4.20;;
65658;SDS011;60181;53.258;6.932;2022-07-23T07:58:30;6.40;;;4.20;;
65658;SDS011;60181;53.258;6.932;2022-07-23T08:02:58;7.20;;;4.80;;
65658;SDS011;60181;53.258;6.932;2022-07-23T08:07:26;7.20;;;4.80;;
65658;SDS011;60181;53.258;6.932;2022-07-23T08:11:54;7.80;;;4.40;;
65658;SDS011;60181;53.258;6.932;2022-07-23T08:16:22;7.80;;;4.40;;
65658;SDS011;60181;53.258;6.932;2022-07-23T08:20:50;7.90;;;4.40;;
65658;SDS011;60181;53.258;6.932;2022-07-23T08:25:25;7.90;;;4.40;;
65658;SDS011;60181;53.258;6.932;2022-07-23T08:29:46;8.20;;;4.90;;
65658;SDS011;60181;53.258;6.932;2022-07-23T08:34:14;8.20;;;4.90;;
65658;SDS011;60181;53.258;6.932;2022-07-23T08:38:42;7.60;;;5.20;;
65658;SDS011;60181;53.258;6.932;2022-07-23T08:43:11;7.60;;;5.20;;
65658;SDS011;60181;53.258;6.932;2022-07-23T08:47:38;7.60;;;5.20;;
65658;SDS011;60181;53.258;6.932;2022-07-23T08:52:06;8.60;;;5.30;;
65658;SDS011;60181;53.258;6.932;2022-07-23T08:56:34;8.60;;;5.30;;
65658;SDS011;60181;53.258;6.932;2022-07-23T09:01:02;8.30;;;5.40;;
65658;SDS011;60181;53.258;6.932;2022-07-23T09:05:30;8.30;;;5.40;;
65658;SDS011;60181;53.258;6.932;2022-07-23T09:10:05;9.00;;;5.80;;
65658;SDS011;60181;53.258;6.932;2022-07-23T09:14:42;9.00;;;5.80;;
65658;SDS011;60181;53.258;6.932;2022-07-23T09:18:58;10.40;;;6.20;;
65658;SDS011;60181;53.258;6.932;2022-07-23T09:23:31;10.40;;;6.20;;
65658;SDS011;60181;53.258;6.932;2022-07-23T09:27:52;10.40;;;6.20;;
65658;SDS011;60181;53.258;6.932;2022-07-23T09:32:18;9.40;;;5.60;;
65658;SDS011;60181;53.258;6.932;2022-07-23T09:36:46;9.40;;;5.60;;
65658;SDS011;60181;53.258;6.932;2022-07-23T09:41:14;10.10;;;6.30;;
65658;SDS011;60181;53.258;6.932;2022-07-23T09:45:42;10.10;;;6.30;;
65658;SDS011;60181;53.258;6.932;2022-07-23T09:50:10;9.90;;;6.50;;
65658;SDS011;60181;53.258;6.932;2022-07-23T09:54:38;9.90;;;6.50;;
65658;SDS011;60181;53.258;6.932;2022-07-23T09:59:06;8.80;;;6.00;;
65658;SDS011;60181;53.258;6.932;2022-07-23T10:03:34;8.80;;;6.00;;
65658;SDS011;60181;53.258;6.932;2022-07-23T10:08:02;8.80;;;6.00;;
65658;SDS011;60181;53.258;6.932;2022-07-23T10:12:30;10.90;;;6.50;;
65658;SDS011;60181;53.258;6.932;2022-07-23T10:16:58;10.90;;;6.50;;
65658;SDS011;60181;53.258;6.932;2022-07-23T10:30:31;10.40;;;6.30;;
65658;SDS011;60181;53.258;6.932;2022-07-23T10:35:03;10.40;;;6.30;;
65658;SDS011;60181;53.258;6.932;2022-07-23T10:39:28;9.70;;;6.30;;
65658;SDS011;60181;53.258;6.932;2022-07-23T10:43:56;9.70;;;6.30;;
65658;SDS011;60181;53.258;6.932;2022-07-23T10:48:21;9.70;;;6.30;;
65658;SDS011;60181;53.258;6.932;2022-07-23T10:52:42;11.00;;;6.70;;
65658;SDS011;60181;53.258;6.932;2022-07-23T10:57:11;11.00;;;6.70;;
65658;SDS011;60181;53.258;6.932;2022-07-23T11:01:38;10.50;;;6.40;;
65658;SDS011;60181;53.258;6.932;2022-07-23T11:06:06;10.50;;;6.40;;
65658;SDS011;60181;53.258;6.932;2022-07-23T11:10:35;9.40;;;6.20;;
65658;SDS011;60181;53.258;6.932;2022-07-23T11:15:08;9.40;;;6.20;;
65658;SDS011;60181;53.258;6.932;2022-07-23T11:19:30;9.80;;;6.10;;
65658;SDS011;60181;53.258;6.932;2022-07-23T11:24:05;9.80;;;6.10;;
65658;SDS011;60181;53.258;6.932;2022-07-23T11:28:26;9.80;;;6.10;;
65658;SDS011;60181;53.258;6.932;2022-07-23T11:32:54;9.20;;;6.10;;
65658;SDS011;60181;53.258;6.932;2022-07-23T11:37:29;9.20;;;6.10;;
65658;SDS011;60181;53.258;6.932;2022-07-23T11:41:50;9.40;;;6.10;;
65658;SDS011;60181;53.258;6.932;2022-07-23T11:46:18;9.40;;;6.10;;
65658;SDS011;60181;53.258;6.932;2022-07-23T11:50:46;9.10;;;6.00;;
65658;SDS011;60181;53.258;6.932;2022-07-23T11:55:14;9.10;;;6.00;;
65658;SDS011;60181;53.258;6.932;2022-07-23T11:59:42;10.40;;;6.30;;
65658;SDS011;60181;53.258;6.932;2022-07-23T12:04:10;10.40;;;6.30;;
65658;SDS011;60181;53.258;6.932;2022-07-23T12:08:41;10.40;;;6.30;;
65658;SDS011;60181;53.258;6.932;2022-07-23T12:13:07;9.10;;;6.00;;
65658;SDS011;60181;53.258;6.932;2022-07-23T12:17:36;9.10;;;6.00;;
65658;SDS011;60181;53.258;6.932;2022-07-23T12:22:02;8.70;;;5.80;;
65658;SDS011;60181;53.258;6.932;2022-07-23T12:26:30;8.70;;;5.80;;
65658;SDS011;60181;53.258;6.932;2022-07-23T12:30:58;10.00;;;6.60;;
65658;SDS011;60181;53.258;6.932;2022-07-23T12:35:36;10.00;;;6.60;;
65658;SDS011;60181;53.258;6.932;2022-07-23T12:39:54;10.60;;;7.10;;
65658;SDS011;60181;53.258;6.932;2022-07-23T12:44:22;10.60;;;7.10;;
65658;SDS011;60181;53.258;6.932;2022-07-23T12:48:50;10.60;;;7.10;;
65658;SDS011;60181;53.258;6.932;2022-07-23T12:53:19;9.40;;;6.40;;
65658;SDS011;60181;53.258;6.932;2022-07-23T12:57:46;9.40;;;6.40;;
65658;SDS011;60181;53.258;6.932;2022-07-23T13:02:14;10.60;;;6.80;;
65658;SDS011;60181;53.258;6.932;2022-07-23T13:06:46;10.60;;;6.80;;
65658;SDS011;60181;53.258;6.932;2022-07-23T13:11:10;10.90;;;7.10;;
65658;SDS011;60181;53.258;6.932;2022-07-23T13:15:38;10.90;;;7.10;;
65658;SDS011;60181;53.258;6.932;2022-07-23T13:20:06;12.00;;;7.60;;
65658;SDS011;60181;53.258;6.932;2022-07-23T13:24:34;12.00;;;7.60;;
65658;SDS011;60181;53.258;6.932;2022-07-23T13:29:02;12.50;;;7.50;;
65658;SDS011;60181;53.258;6.932;2022-07-23T13:33:30;12.50;;;7.50;;
65658;SDS011;60181;53.258;6.932;2022-07-23T13:37:58;12.50;;;7.50;;
65658;SDS011;60181;53.258;6.932;2022-07-23T13:42:26;12.50;;;7.50;;
65658;SDS011;60181;53.258;6.932;2022-07-23T13:46:54;12.50;;;7.50;;
65658;SDS011;60181;53.258;6.932;2022-07-23T13:51:22;11.90;;;7.60;;
65658;SDS011;60181;53.258;6.932;2022-07-23T13:55:51;11.90;;;7.60;;
65658;SDS011;60181;53.258;6.932;2022-07-23T14:00:18;12.40;;;7.90;;
65658;SDS011;60181;53.258;6.932;2022-07-23T14:04:46;12.40;;;7.90;;
65658;SDS011;60181;53.258;6.932;2022-07-23T14:09:14;12.30;;;7.80;;
65658;SDS011;60181;53.258;6.932;2022-07-23T14:13:42;12.30;;;7.80;;
65658;SDS011;60181;53.258;6.932;2022-07-23T14:18:10;12.30;;;7.80;;
65658;SDS011;60181;53.258;6.932;2022-07-23T14:22:38;11.90;;;7.70;;
65658;SDS011;60181;53.258;6.932;2022-07-23T14:27:06;11.90;;;7.70;;
65658;SDS011;60181;53.258;6.932;2022-07-23T14:31:34;13.10;;;8.00;;
65658;SDS011;60181;53.258;6.932;2022-07-23T14:36:02;13.10;;;8.00;;
65658;SDS011;60181;53.258;6.932;2022-07-23T14:40:30;12.50;;;8.10;;
65658;SDS011;60181;53.258;6.932;2022-07-23T14:44:58;12.50;;;8.10;;
65658;SDS011;60181;53.258;6.932;2022-07-23T14:49:28;11.50;;;7.60;;
65658;SDS011;60181;53.258;6.932;2022-07-23T14:53:54;11.50;;;7.60;;
65658;SDS011;60181;53.258;6.932;2022-07-23T14:58:22;11.50;;;7.60;;
65658;SDS011;60181;53.258;6.932;2022-07-23T15:02:50;12.50;;;7.60;;
65658;SDS011;60181;53.258;6.932;2022-07-23T15:07:17;12.50;;;7.60;;
65658;SDS011;60181;53.258;6.932;2022-07-23T15:11:45;11.70;;;7.50;;
65658;SDS011;60181;53.258;6.932;2022-07-23T15:16:14;11.70;;;7.50;;
65658;SDS011;60181;53.258;6.932;2022-07-23T15:20:41;12.70;;;7.80;;
65658;SDS011;60181;53.258;6.932;2022-07-23T15:25:10;12.70;;;7.80;;
65658;SDS011;60181;53.258;6.932;2022-07-23T15:29:37;10.50;;;7.20;;
65658;SDS011;60181;53.258;6.932;2022-07-23T15:34:05;10.50;;;7.20;;
65658;SDS011;60181;53.258;6.932;2022-07-23T15:38:33;10.50;;;7.20;;
65658;SDS011;60181;53.258;6.932;2022-07-23T15:43:02;13.00;;;7.80;;
65658;SDS011;60181;53.258;6.932;2022-07-23T15:47:29;13.00;;;7.80;;
65658;SDS011;60181;53.258;6.932;2022-07-23T15:51:57;11.60;;;7.20;;
65658;SDS011;60181;53.258;6.932;2022-07-23T15:56:25;11.60;;;7.20;;
65658;SDS011;60181;53.258;6.932;2022-07-23T16:00:54;11.20;;;7.20;;
65658;SDS011;60181;53.258;6.932;2022-07-23T16:05:21;11.20;;;7.20;;
65658;SDS011;60181;53.258;6.932;2022-07-23T16:09:49;11.20;;;7.40;;
65658;SDS011;60181;53.258;6.932;2022-07-23T16:14:18;11.20;;;7.40;;
65658;SDS011;60181;53.258;6.932;2022-07-23T16:18:45;11.20;;;7.40;;
65658;SDS011;60181;53.258;6.932;2022-07-23T16:23:13;10.80;;;7.50;;
65658;SDS011;60181;53.258;6.932;2022-07-23T16:27:41;10.80;;;7.50;;
65658;SDS011;60181;53.258;6.932;2022-07-23T16:32:09;10.00;;;6.70;;
65658;SDS011;60181;53.258;6.932;2022-07-23T16:36:37;10.00;;;6.70;;
65658;SDS011;60181;53.258;6.932;2022-07-23T16:41:06;10.50;;;6.60;;
65658;SDS011;60181;53.258;6.932;2022-07-23T16:45:33;10.50;;;6.60;;
65658;SDS011;60181;53.258;6.932;2022-07-23T16:50:02;10.80;;;6.90;;
65658;SDS011;60181;53.258;6.932;2022-07-23T16:54:30;10.80;;;6.90;;
65658;SDS011;60181;53.258;6.932;2022-07-23T16:58:58;10.80;;;6.90;;
65658;SDS011;60181;53.258;6.932;2022-07-23T17:03:25;11.10;;;6.80;;
65658;SDS011;60181;53.258;6.932;2022-07-23T17:07:53;11.10;;;6.80;;
65658;SDS011;60181;53.258;6.932;2022-07-23T17:12:21;10.10;;;6.50;;
65658;SDS011;60181;53.258;6.932;2022-07-23T17:16:49;10.10;;;6.50;;
65658;SDS011;60181;53.258;6.932;2022-07-23T17:21:17;10.30;;;6.50;;
65658;SDS011;60181;53.258;6.932;2022-07-23T17:25:45;10.30;;;6.50;;
65658;SDS011;60181;53.258;6.932;2022-07-23T17:30:14;8.50;;;5.60;;
65658;SDS011;60181;53.258;6.932;2022-07-23T17:34:41;8.50;;;5.60;;
65658;SDS011;60181;53.258;6.932;2022-07-23T17:39:09;7.60;;;5.50;;
65658;SDS011;60181;53.258;6.932;2022-07-23T17:43:37;7.60;;;5.50;;
65658;SDS011;60181;53.258;6.932;2022-07-23T17:48:05;7.60;;;5.50;;
65658;SDS011;60181;53.258;6.932;2022-07-23T17:52:41;9.00;;;5.50;;
65658;SDS011;60181;53.258;6.932;2022-07-23T17:57:01;9.00;;;5.50;;
65658;SDS011;60181;53.258;6.932;2022-07-23T18:01:29;7.60;;;5.20;;
65658;SDS011;60181;53.258;6.932;2022-07-23T18:05:57;7.60;;;5.20;;
65658;SDS011;60181;53.258;6.932;2022-07-23T18:10:25;7.20;;;5.10;;
65658;SDS011;60181;53.258;6.932;2022-07-23T18:14:53;7.20;;;5.10;;
65658;SDS011;60181;53.258;6.932;2022-07-23T18:19:21;6.10;;;4.70;;
65658;SDS011;60181;53.258;6.932;2022-07-23T18:23:49;6.10;;;4.70;;
65658;SDS011;60181;53.258;6.932;2022-07-23T18:28:17;6.10;;;4.70;;
65658;SDS011;60181;53.258;6.932;2022-07-23T18:32:45;6.70;;;4.70;;
65658;SDS011;60181;53.258;6.932;2022-07-23T18:37:13;6.70;;;4.70;;
65658;SDS011;60181;53.258;6.932;2022-07-23T18:41:41;7.30;;;5.00;;
65658;SDS011;60181;53.258;6.932;2022-07-23T18:46:09;7.30;;;5.00;;
65658;SDS011;60181;53.258;6.932;2022-07-23T18:50:37;8.10;;;4.70;;
65658;SDS011;60181;53.258;6.932;2022-07-23T18:55:06;8.10;;;4.70;;
65658;SDS011;60181;53.258;6.932;2022-07-23T18:59:33;7.30;;;4.70;;
65658;SDS011;60181;53.258;6.932;2022-07-23T19:04:01;7.30;;;4.70;;
65658;SDS011;60181;53.258;6.932;2022-07-23T19:08:29;7.30;;;4.70;;
65658;SDS011;60181;53.258;6.932;2022-07-23T19:12:57;6.80;;;4.60;;
65658;SDS011;60181;53.258;6.932;2022-07-23T19:17:25;6.80;;;4.60;;
65658;SDS011;60181;53.258;6.932;2022-07-23T19:21:53;7.00;;;4.60;;
65658;SDS011;60181;53.258;6.932;2022-07-23T19:26:21;7.00;;;4.60;;
65658;SDS011;60181;53.258;6.932;2022-07-23T19:30:49;5.80;;;4.20;;
65658;SDS011;60181;53.258;6.932;2022-07-23T19:35:17;5.80;;;4.20;;
65658;SDS011;60181;53.258;6.932;2022-07-23T19:39:45;5.80;;;4.30;;
65658;SDS011;60181;53.258;6.932;2022-07-23T19:44:13;5.80;;;4.30;;
65658;SDS011;60181;53.258;6.932;2022-07-23T19:48:41;5.80;;;4.30;;
65658;SDS011;60181;53.258;6.932;2022-07-23T19:53:09;7.40;;;4.10;;
65658;SDS011;60181;53.258;6.932;2022-07-23T19:57:37;7.40;;;4.10;;
65658;SDS011;60181;53.258;6.932;2022-07-23T20:02:05;6.90;;;4.40;;
65658;SDS011;60181;53.258;6.932;2022-07-23T20:06:33;6.90;;;4.40;;
65658;SDS011;60181;53.258;6.932;2022-07-23T20:11:01;5.60;;;3.80;;
65658;SDS011;60181;53.258;6.932;2022-07-23T20:15:29;5.60;;;3.80;;
65658;SDS011;60181;53.258;6.932;2022-07-23T20:19:57;5.50;;;3.80;;
65658;SDS011;60181;53.258;6.932;2022-07-23T20:24:25;5.50;;;3.80;;
65658;SDS011;60181;53.258;6.932;2022-07-23T20:28:53;5.50;;;3.80;;
65658;SDS011;60181;53.258;6.932;2022-07-23T20:33:22;6.20;;;4.00;;
65658;SDS011;60181;53.258;6.932;2022-07-23T20:37:49;6.20;;;4.00;;
65658;SDS011;60181;53.258;6.932;2022-07-23T20:42:17;6.00;;;4.00;;
65658;SDS011;60181;53.258;6.932;2022-07-23T20:46:45;6.00;;;4.00;;
65658;SDS011;60181;53.258;6.932;2022-07-23T20:51:13;5.60;;;3.90;;
65658;SDS011;60181;53.258;6.932;2022-07-23T20:55:41;5.60;;;3.90;;
65658;SDS011;60181;53.258;6.932;2022-07-23T21:00:10;5.80;;;4.00;;
65658;SDS011;60181;53.258;6.932;2022-07-23T21:04:37;5.80;;;4.00;;
65658;SDS011;60181;53.258;6.932;2022-07-23T21:09:05;5.10;;;3.60;;
65658;SDS011;60181;53.258;6.932;2022-07-23T21:13:33;5.10;;;3.60;;
65658;SDS011;60181;53.258;6.932;2022-07-23T21:18:01;5.10;;;3.60;;
65658;SDS011;60181;53.258;6.932;2022-07-23T21:22:29;4.70;;;3.40;;
65658;SDS011;60181;53.258;6.932;2022-07-23T21:26:57;4.70;;;3.40;;
65658;SDS011;60181;53.258;6.932;2022-07-23T21:31:25;5.00;;;3.60;;
65658;SDS011;60181;53.258;6.932;2022-07-23T21:35:53;5.00;;;3.60;;
65658;SDS011;60181;53.258;6.932;2022-07-23T21:40:21;5.20;;;3.70;;
65658;SDS011;60181;53.258;6.932;2022-07-23T21:44:49;5.20;;;3.70;;
65658;SDS011;60181;53.258;6.932;2022-07-23T21:49:17;5.10;;;3.60;;
65658;SDS011;60181;53.258;6.932;2022-07-23T21:53:45;5.10;;;3.60;;
65658;SDS011;60181;53.258;6.932;2022-07-23T21:58:13;5.10;;;3.60;;
65658;SDS011;60181;53.258;6.932;2022-07-23T22:02:41;4.10;;;3.30;;
65658;SDS011;60181;53.258;6.932;2022-07-23T22:07:09;4.10;;;3.30;;
65658;SDS011;60181;53.258;6.932;2022-07-23T22:11:37;4.80;;;3.40;;
65658;SDS011;60181;53.258;6.932;2022-07-23T22:16:05;4.80;;;3.40;;
65658;SDS011;60181;53.258;6.932;2022-07-23T22:20:33;4.80;;;3.30;;
65658;SDS011;60181;53.258;6.932;2022-07-23T22:25:01;4.80;;;3.30;;
65658;SDS011;60181;53.258;6.932;2022-07-23T22:29:29;4.10;;;3.20;;
65658;SDS011;60181;53.258;6.932;2022-07-23T22:33:57;4.10;;;3.20;;
65658;SDS011;60181;53.258;6.932;2022-07-23T22:38:25;4.10;;;3.20;;
65658;SDS011;60181;53.258;6.932;2022-07-23T22:42:53;5.40;;;3.00;;
65658;SDS011;60181;53.258;6.932;2022-07-23T22:47:21;5.40;;;3.00;;
65658;SDS011;60181;53.258;6.932;2022-07-23T22:51:49;4.50;;;3.10;;
65658;SDS011;60181;53.258;6.932;2022-07-23T22:56:17;4.50;;;3.10;;
65658;SDS011;60181;53.258;6.932;2022-07-23T23:00:45;4.10;;;2.90;;
65658;SDS011;60181;53.258;6.932;2022-07-23T23:05:13;4.10;;;2.90;;
65658;SDS011;60181;53.258;6.932;2022-07-23T23:09:41;4.10;;;2.90;;
65658;SDS011;60181;53.258;6.932;2022-07-23T23:14:09;4.10;;;2.90;;
65658;SDS011;60181;53.258;6.932;2022-07-23T23:18:37;4.10;;;2.90;;
65658;SDS011;60181;53.258;6.932;2022-07-23T23:23:05;4.10;;;2.80;;
65658;SDS011;60181;53.258;6.932;2022-07-23T23:27:33;4.10;;;2.80;;
65658;SDS011;60181;53.258;6.932;2022-07-23T23:32:01;4.50;;;2.80;;
65658;SDS011;60181;53.258;6.932;2022-07-23T23:36:29;4.50;;;2.80;;
65658;SDS011;60181;53.258;6.932;2022-07-23T23:40:57;4.40;;;2.70;;
65658;SDS011;60181;53.258;6.932;2022-07-23T23:45:25;4.40;;;2.70;;
65658;SDS011;60181;53.258;6.932;2022-07-23T23:49:53;4.50;;;2.80;;
65658;SDS011;60181;53.258;6.932;2022-07-23T23:54:21;4.50;;;2.80;;
65658;SDS011;60181;53.258;6.932;2022-07-23T23:58:49;4.50;;;2.80;;
